Time;durP1;ratioP1;P1;durP2;ratioP2;P2;SDS_P1;SDS_P2;PMS_P1;PMS_P2;Temp;Humidity;BMP_temperature;BMP_pressure;BME280_temperature;BME280_humidity;BME280_pressure;Samples;Min_cycle;Max_cycle;Signal;HPM_P1;HPM_P2
2021/01/16 00:04:38;;;;;;;2.60;1.92;;;18.20;60.30;;;;;;10284129;28;20442;-65
2021/01/16 00:09:38;;;;;;;3.13;1.67;;;18.20;60.20;;;;;;10290360;28;20528;-65
2021/01/16 00:14:39;;;;;;;2.67;1.60;;;18.20;60.20;;;;;;10285725;28;20560;-65
2021/01/16 00:19:40;;;;;;;2.42;1.80;;;18.20;60.20;;;;;;10293662;28;20549;-65
2021/01/16 00:24:40;;;;;;;3.15;1.77;;;18.20;60.20;;;;;;10279409;28;20121;-65
2021/01/16 00:29:41;;;;;;;2.17;1.50;;;18.20;60.20;;;;;;10289915;28;20072;-65
2021/01/16 00:34:42;;;;;;;2.53;1.90;;;18.20;60.20;;;;;;10292825;28;20114;-65
2021/01/16 00:39:42;;;;;;;2.33;1.40;;;18.20;60.10;;;;;;10288211;28;20031;-65
2021/01/16 00:44:43;;;;;;;3.15;1.77;;;18.20;60.10;;;;;;10291250;28;20041;-64
2021/01/16 00:49:44;;;;;;;2.65;1.80;;;18.20;60.10;;;;;;10292712;28;20065;-64
2021/01/16 00:54:44;;;;;;;2.55;2.00;;;18.20;60.10;;;;;;10289469;28;20045;-65
2021/01/16 00:59:45;;;;;;;2.53;1.63;;;18.20;60.00;;;;;;10292716;28;20448;-65
2021/01/16 01:04:46;;;;;;;4.38;1.80;;;18.20;59.90;;;;;;10283193;28;20125;-65
2021/01/16 01:09:47;;;;;;;3.90;2.08;;;18.20;59.90;;;;;;10291296;28;20038;-65
2021/01/16 01:14:47;;;;;;;3.50;1.88;;;18.20;59.80;;;;;;10288549;28;20039;-65
2021/01/16 01:19:48;;;;;;;3.78;1.50;;;18.20;59.80;;;;;;10292148;28;20103;-65
2021/01/16 01:24:49;;;;;;;2.75;1.75;;;18.20;59.80;;;;;;10286275;28;20035;-65
2021/01/16 01:29:49;;;;;;;2.70;1.52;;;18.20;59.80;;;;;;10288451;28;20106;-65
2021/01/16 01:34:50;;;;;;;2.20;1.60;;;18.20;60.00;;;;;;10286455;28;20066;-65
2021/01/16 01:39:51;;;;;;;3.20;1.75;;;18.20;59.80;;;;;;10275124;28;20027;-65
2021/01/16 01:44:51;;;;;;;3.03;1.83;;;18.20;59.80;;;;;;10270046;28;20027;-65
2021/01/16 01:49:54;;;;;;;3.25;1.90;;;18.20;59.70;;;;;;10254024;28;20027;-65
2021/01/16 01:54:57;;;;;;;3.90;1.85;;;18.20;59.70;;;;;;10282955;28;20038;-65
2021/01/16 02:00:00;;;;;;;2.90;1.75;;;18.20;59.70;;;;;;10282242;28;20043;-65
2021/01/16 02:05:06;;;;;;;2.90;1.95;;;18.20;59.60;;;;;;10270142;28;20121;-65
2021/01/16 02:10:11;;;;;;;3.65;1.88;;;18.20;59.60;;;;;;10280468;28;20030;-65
2021/01/16 02:15:40;;;;;;;2.75;2.05;;;18.20;59.60;;;;;;10271342;28;20443;-65
2021/01/16 02:20:45;;;;;;;3.70;1.70;;;18.20;59.50;;;;;;10298330;28;20082;-65
2021/01/16 02:26:17;;;;;;;2.58;1.60;;;18.20;59.50;;;;;;10279665;28;20031;-64
2021/01/16 02:31:17;;;;;;;2.70;1.80;;;18.20;59.50;;;;;;10288733;28;20033;-65
2021/01/16 02:36:33;;;;;;;3.17;1.80;;;18.20;59.60;;;;;;10287741;28;20364;-65
2021/01/16 02:41:53;;;;;;;2.20;1.50;;;18.20;59.50;;;;;;10276679;28;20042;-65
2021/01/16 02:46:59;;;;;;;3.03;1.83;;;18.20;59.50;;;;;;10294186;28;20039;-64
2021/01/16 02:52:09;;;;;;;1.90;1.52;;;18.20;59.50;;;;;;10309073;28;20039;-65
2021/01/16 02:57:11;;;;;;;3.85;2.17;;;18.20;59.40;;;;;;10306630;28;20057;-65
2021/01/16 03:02:15;;;;;;;2.92;1.65;;;18.20;59.50;;;;;;10293434;28;20041;-65
2021/01/16 03:07:16;;;;;;;2.50;1.42;;;18.20;59.40;;;;;;10277121;28;20046;-65
2021/01/16 03:12:17;;;;;;;1.95;1.42;;;18.20;59.40;;;;;;10280884;28;20064;-65
2021/01/16 03:17:23;;;;;;;2.85;1.55;;;18.20;59.40;;;;;;10279316;28;20023;-65
2021/01/16 03:22:28;;;;;;;2.80;1.63;;;18.20;59.40;;;;;;10268799;28;20171;-65
2021/01/16 03:27:29;;;;;;;3.15;1.70;;;18.20;59.40;;;;;;10273190;28;20086;-65
2021/01/16 03:32:30;;;;;;;2.33;1.52;;;18.20;59.40;;;;;;10278437;28;20038;-64
2021/01/16 03:37:30;;;;;;;2.10;1.40;;;18.20;60.00;;;;;;10292939;28;20027;-65
2021/01/16 03:42:31;;;;;;;6.85;1.70;;;18.20;59.30;;;;;;10284854;28;20038;-65
2021/01/16 03:47:32;;;;;;;3.05;1.88;;;18.20;59.30;;;;;;10265411;28;20058;-64
2021/01/16 03:52:36;;;;;;;3.17;2.08;;;18.20;59.30;;;;;;10272998;28;20058;-65
2021/01/16 03:57:37;;;;;;;2.10;1.50;;;18.20;59.30;;;;;;10286387;28;20039;-65
2021/01/16 04:02:38;;;;;;;2.92;1.73;;;18.20;59.20;;;;;;10277888;28;20030;-65
2021/01/16 04:07:38;;;;;;;2.63;1.70;;;18.20;59.30;;;;;;10269541;28;20035;-65
2021/01/16 04:12:39;;;;;;;2.42;1.45;;;18.20;59.20;;;;;;10274111;28;20049;-65
2021/01/16 04:17:40;;;;;;;2.70;1.65;;;18.20;59.20;;;;;;10285168;28;20035;-65
2021/01/16 04:22:40;;;;;;;2.35;1.60;;;18.20;59.20;;;;;;10283329;28;20109;-64
2021/01/16 04:27:41;;;;;;;3.13;1.73;;;18.20;59.20;;;;;;10289806;28;20045;-65
2021/01/16 04:32:42;;;;;;;3.15;1.52;;;18.20;59.20;;;;;;10290005;28;20118;-65
2021/01/16 04:37:45;;;;;;;2.00;1.52;;;18.20;59.20;;;;;;10278612;28;20076;-65
2021/01/16 04:42:47;;;;;;;2.40;1.55;;;18.20;59.10;;;;;;10281605;28;20051;-65
2021/01/16 04:47:50;;;;;;;2.35;1.45;;;18.20;59.10;;;;;;10276362;28;20073;-65
2021/01/16 04:52:54;;;;;;;2.30;1.45;;;18.20;59.10;;;;;;10263654;28;20035;-65
2021/01/16 04:58:07;;;;;;;1.90;1.23;;;18.20;59.10;;;;;;10272333;28;20500;-65
2021/01/16 05:03:10;;;;;;;2.88;1.42;;;18.20;59.00;;;;;;10288284;28;20158;-66
2021/01/16 05:08:12;;;;;;;2.80;1.83;;;18.20;59.10;;;;;;10280899;28;20035;-66
2021/01/16 05:13:15;;;;;;;2.38;1.55;;;18.20;59.00;;;;;;10279483;28;20030;-66
2021/01/16 05:18:20;;;;;;;1.70;1.40;;;18.20;59.00;;;;;;10274099;28;20031;-66
2021/01/16 05:23:20;;;;;;;2.40;1.42;;;18.20;59.00;;;;;;10281256;28;20567;-65
2021/01/16 05:28:24;;;;;;;2.60;1.70;;;18.20;59.00;;;;;;10255578;28;20027;-65
2021/01/16 05:33:34;;;;;;;2.22;1.40;;;18.20;59.00;;;;;;10288853;28;20031;-65
2021/01/16 05:38:45;;;;;;;3.13;1.83;;;18.20;59.00;;;;;;10309564;28;20035;-65
2021/01/16 05:43:46;;;;;;;2.40;1.45;;;18.20;59.00;;;;;;10286057;28;20042;-65
2021/01/16 05:48:55;;;;;;;2.03;1.50;;;18.20;59.00;;;;;;10278619;28;20475;-65
2021/01/16 05:53:57;;;;;;;1.58;1.30;;;18.20;58.90;;;;;;10277545;28;20111;-65
2021/01/16 05:58:59;;;;;;;2.03;1.33;;;18.20;58.90;;;;;;10289899;28;20435;-65
2021/01/16 06:04:00;;;;;;;2.83;1.60;;;18.20;58.90;;;;;;10281932;28;20503;-65
2021/01/16 06:09:03;;;;;;;2.53;1.77;;;18.20;58.80;;;;;;10276683;28;20031;-65
2021/01/16 06:14:09;;;;;;;2.55;1.70;;;18.20;58.80;;;;;;10272973;28;20034;-66
2021/01/16 06:19:10;;;;;;;2.53;1.60;;;18.20;58.80;;;;;;10280049;28;20483;-65
2021/01/16 06:24:15;;;;;;;2.05;1.65;;;18.20;58.80;;;;;;10274851;28;20053;-65
2021/01/16 06:29:34;;;;;;;2.28;1.75;;;18.20;58.70;;;;;;10296492;28;20031;-65
2021/01/16 06:34:41;;;;;;;1.77;1.40;;;18.20;58.60;;;;;;10291163;28;20118;-65
2021/01/16 06:39:47;;;;;;;2.60;1.65;;;18.20;58.70;;;;;;10288775;28;20031;-65
2021/01/16 06:45:00;;;;;;;2.28;1.20;;;18.20;58.80;;;;;;10279929;28;20038;-65
2021/01/16 06:50:04;;;;;;;2.42;1.33;;;18.20;58.70;;;;;;10279285;28;20042;-64
2021/01/16 06:55:07;;;;;;;5.93;2.08;;;18.20;58.60;;;;;;10278302;28;20031;-63
2021/01/16 07:00:09;;;;;;;3.33;1.70;;;18.10;59.00;;;;;;10281076;28;20051;-61
2021/01/16 07:05:16;;;;;;;5.28;1.73;;;18.10;59.70;;;;;;10280384;28;20038;-63
2021/01/16 07:10:20;;;;;;;5.43;1.90;;;18.20;60.50;;;;;;10283838;28;20062;-64
2021/01/16 07:15:21;;;;;;;11.18;2.58;;;18.20;60.40;;;;;;10277021;28;20046;-63
2021/01/16 07:20:23;;;;;;;5.55;1.90;;;18.20;60.10;;;;;;10278404;28;20031;-62
2021/01/16 07:25:26;;;;;;;5.70;1.90;;;18.20;59.70;;;;;;10290038;28;20033;-62
2021/01/16 07:30:29;;;;;;;7.28;2.35;;;18.30;59.70;;;;;;10264550;28;20031;-59
2021/01/16 07:35:33;;;;;;;8.00;2.88;;;18.30;59.80;;;;;;10295884;28;20046;-61
2021/01/16 07:40:38;;;;;;;11.45;2.35;;;18.30;59.70;;;;;;10284335;28;20041;-60
2021/01/16 07:45:49;;;;;;;11.45;2.05;;;18.30;60.10;;;;;;10290256;28;20034;-63
2021/01/16 07:50:52;;;;;;;7.47;2.70;;;18.40;60.20;;;;;;10256360;28;20091;-65
2021/01/16 07:56:10;;;;;;;14.07;2.63;;;18.40;60.40;;;;;;10290015;28;20372;-70
2021/01/16 08:01:33;;;;;;;17.00;3.75;;;18.40;60.20;;;;;;10290297;28;20395;-65
2021/01/16 08:07:09;;;;;;;16.48;3.83;;;18.50;60.40;;;;;;10287871;28;20498;-61
2021/01/16 08:12:13;;;;;;;15.98;2.40;;;18.50;60.80;;;;;;10290022;28;20054;-62
2021/01/16 08:17:18;;;;;;;7.00;2.50;;;18.50;60.40;;;;;;10287985;28;20038;-61
2021/01/16 08:22:20;;;;;;;9.27;2.63;;;18.40;60.10;;;;;;10277906;28;20118;-61
2021/01/16 08:27:24;;;;;;;6.65;2.90;;;18.50;60.00;;;;;;10277745;28;20034;-63
2021/01/16 08:32:24;;;;;;;15.43;3.35;;;18.50;60.50;;;;;;10278668;28;20030;-60
2021/01/16 08:37:36;;;;;;;11.40;3.05;;;18.50;59.60;;;;;;10287423;28;20118;-64
2021/01/16 08:42:52;;;;;;;16.13;3.72;;;18.50;59.70;;;;;;10285596;28;20475;-66
2021/01/16 08:47:55;;;;;;;15.10;4.07;;;18.50;60.10;;;;;;10285053;28;20117;-63
2021/01/16 08:52:56;;;;;;;13.93;4.07;;;18.50;61.00;;;;;;10281732;28;20039;-64
2021/01/16 08:58:10;;;;;;;12.60;3.70;;;18.50;60.40;;;;;;10288755;28;20395;-63
2021/01/16 09:03:19;;;;;;;11.88;4.05;;;18.50;60.60;;;;;;10281778;28;20522;-64
2021/01/16 09:08:23;;;;;;;9.70;2.97;;;18.50;60.80;;;;;;10280843;28;20517;-64
2021/01/16 09:13:32;;;;;;;14.32;3.92;;;18.50;61.20;;;;;;10287081;28;20829;-62
2021/01/16 09:18:32;;;;;;;12.77;3.50;;;18.50;61.30;;;;;;10270763;28;20385;-61
2021/01/16 09:23:38;;;;;;;12.18;3.28;;;18.40;61.50;;;;;;10282593;28;20109;-69
2021/01/16 09:29:00;;;;;;;16.58;4.28;;;18.40;61.30;;;;;;10287135;28;20072;-69
2021/01/16 09:34:18;;;;;;;16.40;4.28;;;18.40;61.20;;;;;;10284570;28;20023;-68
2021/01/16 09:39:32;;;;;;;16.30;3.45;;;18.40;61.40;;;;;;10279880;28;20487;-67
2021/01/16 09:44:39;;;;;;;17.10;3.78;;;18.40;61.60;;;;;;10298186;28;20034;-68
2021/01/16 09:49:44;;;;;;;19.27;3.60;;;18.40;61.80;;;;;;10280977;28;20563;-68
2021/01/16 09:54:46;;;;;;;19.05;4.00;;;18.40;61.60;;;;;;10274357;28;20035;-66
2021/01/16 10:00:13;;;;;;;20.55;4.93;;;18.40;61.80;;;;;;10286500;28;20058;-62
2021/01/16 10:05:34;;;;;;;14.05;3.22;;;18.40;62.30;;;;;;10283541;28;20074;-66
2021/01/16 10:10:50;;;;;;;16.23;4.15;;;18.40;63.40;;;;;;10268086;28;20118;-65
2021/01/16 10:15:51;;;;;;;14.10;4.18;;;18.30;63.30;;;;;;10278548;28;20571;-75
2021/01/16 10:21:10;;;;;;;12.23;3.88;;;18.30;63.90;;;;;;10277912;28;20149;-63
2021/01/16 10:26:17;;;;;;;13.40;3.57;;;18.20;63.70;;;;;;10294132;28;20038;-59
2021/01/16 10:31:27;;;;;;;16.80;4.82;;;18.10;62.90;;;;;;10295679;28;20106;-61
2021/01/16 10:36:30;;;;;;;15.65;4.30;;;18.10;62.50;;;;;;10292853;28;20480;-61
2021/01/16 10:41:31;;;;;;;15.95;3.80;;;18.20;62.80;;;;;;10284302;28;20360;-61
2021/01/16 10:46:51;;;;;;;14.38;4.10;;;18.20;61.90;;;;;;10277557;28;20114;-62
2021/01/16 10:51:57;;;;;;;11.98;4.00;;;18.20;61.80;;;;;;10262275;28;20573;-61
2021/01/16 10:57:05;;;;;;;12.00;4.07;;;18.20;61.70;;;;;;10268398;28;20023;-62
2021/01/16 11:02:11;;;;;;;12.90;3.40;;;18.20;61.40;;;;;;10277232;28;20045;-62
2021/01/16 11:07:28;;;;;;;9.27;3.80;;;18.20;61.30;;;;;;10274898;28;20457;-62
2021/01/16 11:12:29;;;;;;;12.02;3.10;;;18.20;61.10;;;;;;10277729;28;20086;-61
2021/01/16 11:17:56;;;;;;;8.00;3.30;;;18.20;61.10;;;;;;10294699;28;20086;-62
2021/01/16 11:23:34;;;;;;;9.75;3.38;;;18.20;60.90;;;;;;10298916;28;20114;-62
2021/01/16 11:28:52;;;;;;;7.18;3.58;;;18.20;60.90;;;;;;10277854;28;20031;-62
2021/01/16 11:34:21;;;;;;;18.38;3.70;;;18.20;60.80;;;;;;10293937;28;20031;-61
2021/01/16 11:39:45;;;;;;;6.80;3.43;;;18.20;60.70;;;;;;10289585;28;20045;-61
2021/01/16 11:44:58;;;;;;;6.60;2.85;;;18.20;60.70;;;;;;10286893;28;20126;-61
2021/01/16 11:49:59;;;;;;;5.47;3.05;;;18.20;61.20;;;;;;10271434;28;20090;-61
2021/01/16 11:55:08;;;;;;;6.25;3.30;;;18.10;60.60;;;;;;10258135;28;20094;-61
2021/01/16 12:00:12;;;;;;;5.20;2.80;;;18.20;60.50;;;;;;10291089;28;20055;-62
2021/01/16 12:05:15;;;;;;;7.20;3.15;;;18.10;60.40;;;;;;10277005;28;20066;-61
2021/01/16 12:10:18;;;;;;;7.45;2.83;;;18.10;60.30;;;;;;10279352;28;20097;-64
2021/01/16 12:15:30;;;;;;;13.13;3.95;;;18.10;59.90;;;;;;10272883;28;20035;-60
2021/01/16 12:20:31;;;;;;;12.02;3.58;;;18.10;60.50;;;;;;10274595;28;20035;-63
2021/01/16 12:25:34;;;;;;;7.85;3.67;;;18.10;61.60;;;;;;10263081;28;20523;-59
2021/01/16 12:30:39;;;;;;;12.43;4.03;;;18.10;62.70;;;;;;10265445;28;20055;-60
2021/01/16 12:35:40;;;;;;;10.93;4.15;;;18.10;63.50;;;;;;10287089;28;20027;-62
2021/01/16 12:40:41;;;;;;;8.57;3.55;;;18.10;64.20;;;;;;10288138;28;20031;-72
2021/01/16 12:45:41;;;;;;;9.45;4.03;;;18.10;64.40;;;;;;10286160;28;20137;-63
2021/01/16 12:50:44;;;;;;;9.50;4.38;;;18.10;63.90;;;;;;10282498;28;20532;-62
2021/01/16 12:55:44;;;;;;;10.88;3.78;;;18.00;63.70;;;;;;10274143;28;20023;-64
2021/01/16 13:00:45;;;;;;;9.07;3.42;;;18.00;63.80;;;;;;10287595;28;20138;-67
2021/01/16 13:05:46;;;;;;;8.52;3.60;;;18.00;64.00;;;;;;10281933;28;20349;-64
2021/01/16 13:10:54;;;;;;;11.00;3.47;;;18.10;63.70;;;;;;10279995;28;20031;-65
2021/01/16 13:16:00;;;;;;;10.98;4.03;;;18.00;63.20;;;;;;10278493;28;20106;-65
2021/01/16 13:21:03;;;;;;;9.48;3.30;;;18.00;63.10;;;;;;10291030;28;20034;-64
2021/01/16 13:26:07;;;;;;;9.07;3.08;;;18.00;63.10;;;;;;10263770;28;20027;-63
2021/01/16 13:31:10;;;;;;;8.88;3.95;;;18.00;63.00;;;;;;10265902;28;20038;-65
2021/01/16 13:36:26;;;;;;;9.85;3.40;;;17.90;62.60;;;;;;10288623;28;20022;-65
2021/01/16 13:41:38;;;;;;;9.90;3.38;;;18.00;62.20;;;;;;10282788;28;20387;-66
2021/01/16 13:46:40;;;;;;;6.50;3.35;;;18.00;62.00;;;;;;10284042;28;20110;-63
2021/01/16 13:51:42;;;;;;;11.20;4.07;;;18.00;61.80;;;;;;10284198;28;20041;-63
2021/01/16 13:56:50;;;;;;;17.40;3.67;;;18.00;61.50;;;;;;10278005;28;20062;-63
2021/01/16 14:01:57;;;;;;;7.65;3.13;;;18.00;61.00;;;;;;10289158;28;20062;-62
2021/01/16 14:07:01;;;;;;;7.57;2.72;;;18.00;61.10;;;;;;10290929;28;20118;-61
2021/01/16 14:12:13;;;;;;;10.00;3.35;;;18.00;60.80;;;;;;10292694;28;20435;-62
2021/01/16 14:17:24;;;;;;;7.68;3.35;;;17.90;60.80;;;;;;10281727;28;20038;-61
2021/01/16 14:22:45;;;;;;;5.38;2.38;;;18.00;60.80;;;;;;10284922;28;20035;-62
2021/01/16 14:27:47;;;;;;;7.45;3.45;;;18.00;60.80;;;;;;10274828;28;20126;-70
2021/01/16 14:33:01;;;;;;;5.70;3.13;;;17.90;60.90;;;;;;10274692;28;20033;-60
2021/01/16 14:38:07;;;;;;;10.40;3.42;;;18.00;59.90;;;;;;10293303;28;20352;-68
2021/01/16 14:43:17;;;;;;;10.93;3.45;;;17.90;60.10;;;;;;10283431;28;20085;-66
2021/01/16 14:48:20;;;;;;;8.43;3.45;;;18.00;60.60;;;;;;10274781;28;20456;-62
2021/01/16 14:53:30;;;;;;;13.63;3.03;;;18.00;61.10;;;;;;10267704;28;20199;-65
2021/01/16 14:58:32;;;;;;;11.98;3.00;;;18.00;61.20;;;;;;10287423;28;20125;-59
2021/01/16 15:03:39;;;;;;;15.07;3.50;;;18.00;61.70;;;;;;10288002;28;20026;-68
2021/01/16 15:08:50;;;;;;;23.42;5.13;;;18.00;60.70;;;;;;10281565;28;20090;-68
2021/01/16 15:13:52;;;;;;;21.38;4.85;;;18.00;60.70;;;;;;10306349;28;20114;-65
2021/01/16 15:18:54;;;;;;;13.23;4.22;;;18.00;60.80;;;;;;10288820;28;20019;-65
2021/01/16 15:23:55;;;;;;;31.92;4.97;;;18.00;60.90;;;;;;10285893;28;20080;-66
2021/01/16 15:28:55;;;;;;;11.57;4.35;;;18.00;59.70;;;;;;10280862;28;20034;-66
2021/01/16 15:33:56;;;;;;;14.80;4.28;;;18.00;60.30;;;;;;10288392;28;20034;-64
2021/01/16 15:38:59;;;;;;;11.30;3.38;;;18.00;59.70;;;;;;10291156;28;20011;-65
2021/01/16 15:44:00;;;;;;;15.13;4.05;;;18.00;59.00;;;;;;10283746;28;20035;-66
2021/01/16 15:49:05;;;;;;;13.27;4.50;;;18.00;58.00;;;;;;10262403;28;20487;-61
2021/01/16 15:54:13;;;;;;;11.20;3.97;;;18.00;57.10;;;;;;10280051;28;20034;-63
2021/01/16 15:59:13;;;;;;;10.02;4.25;;;18.00;56.40;;;;;;10288630;28;20046;-70
2021/01/16 16:04:17;;;;;;;10.10;4.68;;;18.00;56.40;;;;;;10284006;28;20475;-64
2021/01/16 16:09:19;;;;;;;9.25;3.58;;;18.10;56.00;;;;;;10279592;28;20184;-66
2021/01/16 16:14:20;;;;;;;9.55;3.92;;;18.10;56.20;;;;;;10288984;28;20031;-66
2021/01/16 16:19:20;;;;;;;8.60;2.88;;;18.10;56.50;;;;;;10279450;28;20089;-66
2021/01/16 16:24:21;;;;;;;13.25;4.03;;;18.10;56.60;;;;;;10286169;28;20050;-65
2021/01/16 16:29:23;;;;;;;7.88;2.58;;;18.10;56.70;;;;;;10269531;28;20045;-65
2021/01/16 16:34:26;;;;;;;6.22;3.13;;;18.10;56.80;;;;;;10289980;28;20372;-65
2021/01/16 16:39:27;;;;;;;5.80;2.90;;;18.20;57.00;;;;;;10284387;28;20391;-66
2021/01/16 16:44:28;;;;;;;9.38;3.50;;;18.20;57.00;;;;;;10281527;28;20054;-61
2021/01/16 16:49:28;;;;;;;9.32;3.08;;;18.10;57.10;;;;;;10270398;28;20033;-61
2021/01/16 16:54:31;;;;;;;8.40;3.10;;;18.10;57.40;;;;;;10269467;28;20101;-63
2021/01/16 16:59:32;;;;;;;10.27;4.45;;;18.10;57.10;;;;;;10276268;28;20050;-61
2021/01/16 17:04:32;;;;;;;11.10;4.60;;;18.10;58.50;;;;;;10283835;28;20759;-63
2021/01/16 17:09:33;;;;;;;16.35;4.80;;;18.10;59.90;;;;;;10288503;28;20570;-63
2021/01/16 17:14:34;;;;;;;15.82;6.65;;;18.10;60.90;;;;;;10281904;28;20035;-64
2021/01/16 17:19:35;;;;;;;10.10;3.95;;;18.20;61.70;;;;;;10290170;28;20033;-61
2021/01/16 17:24:36;;;;;;;17.33;5.55;;;18.20;62.70;;;;;;10285498;28;20058;-63
2021/01/16 17:29:37;;;;;;;12.07;5.05;;;18.30;63.60;;;;;;10270936;28;20039;-67
2021/01/16 17:34:37;;;;;;;11.48;5.57;;;18.30;65.10;;;;;;10289626;28;20417;-67
2021/01/16 17:39:38;;;;;;;15.00;5.28;;;18.30;65.00;;;;;;10296461;28;20106;-63
2021/01/16 17:44:40;;;;;;;11.55;4.65;;;18.20;65.10;;;;;;10299810;28;20027;-66
2021/01/16 17:49:41;;;;;;;10.50;4.35;;;18.10;65.00;;;;;;10270984;28;20031;-62
2021/01/16 17:54:43;;;;;;;10.15;3.72;;;18.10;64.60;;;;;;10274683;28;20396;-63
2021/01/16 17:59:44;;;;;;;8.45;4.45;;;18.10;64.30;;;;;;10291023;28;20058;-60
2021/01/16 18:04:44;;;;;;;15.25;5.10;;;18.20;64.20;;;;;;10291585;28;20042;-62
2021/01/16 18:09:45;;;;;;;14.60;4.47;;;18.20;64.10;;;;;;10285984;28;20387;-63
2021/01/16 18:14:46;;;;;;;10.77;3.45;;;18.10;62.90;;;;;;10280604;28;20110;-63
2021/01/16 18:19:46;;;;;;;8.40;3.72;;;18.10;62.80;;;;;;10274273;28;20664;-61
2021/01/16 18:24:47;;;;;;;9.77;4.53;;;18.00;62.70;;;;;;10272289;28;20031;-61
2021/01/16 18:29:48;;;;;;;22.20;4.25;;;18.00;62.60;;;;;;10269223;28;20177;-63
2021/01/16 18:34:49;;;;;;;11.80;4.50;;;17.90;61.90;;;;;;10293432;28;20121;-62
2021/01/16 18:39:49;;;;;;;12.13;4.78;;;17.90;61.70;;;;;;10293326;28;20105;-63
2021/01/16 18:44:50;;;;;;;10.98;4.55;;;17.90;61.40;;;;;;10291480;28;20178;-64
2021/01/16 18:49:51;;;;;;;14.65;4.93;;;17.90;61.50;;;;;;10285804;28;20377;-63
2021/01/16 18:54:52;;;;;;;10.77;4.53;;;18.00;61.80;;;;;;10281264;28;20081;-63
2021/01/16 18:59:52;;;;;;;10.73;4.55;;;18.00;62.20;;;;;;10288752;28;20515;-60
2021/01/16 19:04:53;;;;;;;11.25;4.65;;;18.00;62.10;;;;;;10280082;28;20046;-62
2021/01/16 19:09:54;;;;;;;14.30;4.90;;;18.00;62.70;;;;;;10291146;28;20106;-62
2021/01/16 19:15:01;;;;;;;11.38;4.10;;;18.10;62.60;;;;;;10278806;28;20027;-61
2021/01/16 19:20:05;;;;;;;18.20;4.68;;;18.10;62.60;;;;;;10288752;28;20027;-63
2021/01/16 19:25:06;;;;;;;10.00;4.32;;;18.10;62.60;;;;;;10303463;28;20030;-63
2021/01/16 19:30:07;;;;;;;6.80;3.65;;;18.20;62.50;;;;;;10289081;28;20038;-61
2021/01/16 19:35:10;;;;;;;6.00;4.00;;;18.20;62.50;;;;;;10292233;28;20484;-62
2021/01/16 19:40:13;;;;;;;7.72;3.78;;;18.20;62.80;;;;;;10288771;28;20019;-62
2021/01/16 19:45:15;;;;;;;5.93;3.92;;;18.10;62.70;;;;;;10280589;28;20050;-64
2021/01/16 19:50:23;;;;;;;7.18;4.05;;;18.10;63.10;;;;;;10288725;28;20510;-60
2021/01/16 19:55:24;;;;;;;8.00;3.65;;;18.20;62.80;;;;;;10288433;28;20027;-63
2021/01/16 20:00:25;;;;;;;5.57;3.08;;;18.10;62.90;;;;;;10289326;28;20129;-62
2021/01/16 20:05:26;;;;;;;7.07;3.67;;;18.10;63.30;;;;;;10289448;28;20101;-61
2021/01/16 20:10:27;;;;;;;7.20;3.47;;;18.10;62.50;;;;;;10288633;28;20061;-62
2021/01/16 20:15:29;;;;;;;8.35;4.75;;;18.10;62.80;;;;;;10290462;28;20026;-64
2021/01/16 20:20:30;;;;;;;5.20;3.22;;;18.10;62.90;;;;;;10283342;28;20038;-59
2021/01/16 20:25:31;;;;;;;10.07;4.38;;;18.10;62.30;;;;;;10284838;28;20110;-62
2021/01/16 20:30:32;;;;;;;7.68;3.58;;;18.00;62.30;;;;;;10288121;28;20054;-63
2021/01/16 20:35:33;;;;;;;7.10;3.58;;;17.90;62.10;;;;;;10290577;28;20027;-62
2021/01/16 20:40:34;;;;;;;5.50;2.97;;;17.90;62.10;;;;;;10286967;28;20022;-62
2021/01/16 20:45:34;;;;;;;5.13;3.45;;;17.90;61.80;;;;;;10270263;28;20552;-64
2021/01/16 20:50:36;;;;;;;11.40;3.55;;;17.90;61.50;;;;;;10267457;28;20113;-65
2021/01/16 20:55:36;;;;;;;6.40;3.53;;;17.90;61.70;;;;;;10275122;28;20576;-65
2021/01/16 21:00:37;;;;;;;7.43;3.35;;;17.80;61.60;;;;;;10283790;28;20043;-64
2021/01/16 21:05:38;;;;;;;6.65;3.47;;;17.80;61.50;;;;;;10278121;28;20114;-65
2021/01/16 21:10:38;;;;;;;7.78;3.50;;;17.80;61.40;;;;;;10276558;28;20047;-66
2021/01/16 21:15:39;;;;;;;5.45;2.85;;;17.80;61.30;;;;;;10270938;28;20039;-66
2021/01/16 21:20:41;;;;;;;8.25;3.88;;;17.90;61.30;;;;;;10289962;28;20050;-66
2021/01/16 21:25:41;;;;;;;5.55;2.90;;;17.90;61.20;;;;;;10287770;28;20039;-67
2021/01/16 21:30:42;;;;;;;4.75;3.03;;;17.90;61.00;;;;;;10282490;28;20039;-67
2021/01/16 21:35:43;;;;;;;6.47;3.53;;;17.90;60.80;;;;;;10287031;28;20062;-66
2021/01/16 21:40:44;;;;;;;7.35;3.42;;;17.90;60.80;;;;;;10279791;28;20023;-66
2021/01/16 21:45:44;;;;;;;5.05;2.90;;;17.90;60.70;;;;;;10265402;28;20157;-66
2021/01/16 21:50:47;;;;;;;3.97;3.03;;;17.90;60.60;;;;;;10259056;28;20106;-67
2021/01/16 21:55:48;;;;;;;5.82;3.22;;;17.90;60.60;;;;;;10281595;28;20026;-66
2021/01/16 22:00:48;;;;;;;3.40;2.50;;;18.00;60.60;;;;;;10284456;28;20402;-67
2021/01/16 22:05:52;;;;;;;3.30;2.55;;;18.00;60.50;;;;;;10279345;28;20049;-66
2021/01/16 22:10:53;;;;;;;3.90;2.83;;;17.90;60.30;;;;;;10277540;28;20364;-67
2021/01/16 22:15:54;;;;;;;4.32;3.05;;;18.00;60.40;;;;;;10267684;28;20031;-66
2021/01/16 22:20:54;;;;;;;4.72;2.97;;;18.00;60.30;;;;;;10283813;28;20035;-65
2021/01/16 22:25:55;;;;;;;4.95;3.20;;;17.90;60.20;;;;;;10266148;28;20110;-66
2021/01/16 22:30:57;;;;;;;5.55;2.78;;;18.00;60.20;;;;;;10267157;28;20066;-66
2021/01/16 22:35:58;;;;;;;4.43;2.85;;;18.00;60.10;;;;;;10294222;28;20019;-66
2021/01/16 22:40:59;;;;;;;5.78;3.38;;;18.00;60.10;;;;;;10287645;28;20019;-66
2021/01/16 22:46:00;;;;;;;4.30;3.08;;;18.00;60.10;;;;;;10273251;28;20122;-67
2021/01/16 22:51:01;;;;;;;5.40;3.08;;;18.00;60.00;;;;;;10263905;28;20050;-67
2021/01/16 22:56:02;;;;;;;4.60;3.25;;;18.00;60.00;;;;;;10275151;28;20038;-68
2021/01/16 23:01:04;;;;;;;4.32;2.60;;;18.00;60.00;;;;;;10293292;28;20053;-66
2021/01/16 23:06:05;;;;;;;4.47;3.35;;;18.00;59.90;;;;;;10288045;28;20027;-66
2021/01/16 23:11:09;;;;;;;4.72;2.95;;;18.00;59.90;;;;;;10280589;28;20023;-67
2021/01/16 23:16:19;;;;;;;4.28;3.00;;;18.00;59.80;;;;;;10273087;28;20041;-67
2021/01/16 23:21:20;;;;;;;;;;;18.00;59.70;;;;;;10277805;28;20027;-66
2021/01/16 23:26:21;;;;;;;3.40;2.72;;;18.00;59.80;;;;;;10261412;28;19969;-66
2021/01/16 23:31:21;;;;;;;3.05;2.30;;;18.00;59.80;;;;;;10277112;28;20448;-67
2021/01/16 23:36:22;;;;;;;3.55;2.67;;;18.00;59.80;;;;;;10292010;28;20042;-66
2021/01/16 23:41:23;;;;;;;4.35;2.72;;;18.00;59.80;;;;;;10287245;28;20365;-66
2021/01/16 23:46:24;;;;;;;3.78;2.55;;;18.00;59.60;;;;;;10272267;28;20054;-66
2021/01/16 23:51:25;;;;;;;5.10;3.10;;;18.00;59.60;;;;;;10272569;28;20483;-66
2021/01/16 23:56:29;;;;;;;4.18;3.00;;;18.00;59.70;;;;;;10269737;28;20089;-66
